Time;durP1;ratioP1;P1;durP2;ratioP2;P2;SDS_P1;SDS_P2;PMS_P1;PMS_P2;Temp;Humidity;BMP_temperature;BMP_pressure;BME280_temperature;BME280_humidity;BME280_pressure;Samples;Min_cycle;Max_cycle;Signal;HPM_P1;HPM_P2
2021/05/12 00:00:31;;;;;;;16.08;6.07;;;28.20;29.10;;;;;;1045171;28;20051;-75
2021/05/12 00:01:02;;;;;;;18.58;6.35;;;28.20;29.40;;;;;;1040865;28;20021;-75
2021/05/12 00:01:34;;;;;;;17.58;5.85;;;28.20;29.60;;;;;;1041586;28;20021;-75
2021/05/12 00:02:05;;;;;;;16.55;6.20;;;28.20;29.20;;;;;;1040845;28;20121;-75
2021/05/12 00:02:37;;;;;;;16.90;5.80;;;28.20;28.70;;;;;;1037321;28;20088;-75
2021/05/12 00:03:08;;;;;;;15.07;5.03;;;28.20;28.60;;;;;;1044270;28;20074;-75
2021/05/12 00:03:40;;;;;;;15.82;5.40;;;28.20;28.40;;;;;;1040936;28;20026;-75
2021/05/12 00:04:11;;;;;;;14.27;5.18;;;28.20;28.60;;;;;;1040859;28;20021;-75
2021/05/12 00:04:43;;;;;;;16.83;5.78;;;28.20;28.40;;;;;;1040976;28;20026;-75
2021/05/12 00:05:15;;;;;;;16.38;5.72;;;28.20;28.40;;;;;;1041481;28;20530;-75
2021/05/12 00:05:46;;;;;;;13.88;5.70;;;28.20;29.20;;;;;;1040807;28;20025;-75
2021/05/12 00:06:18;;;;;;;18.33;6.00;;;28.20;28.20;;;;;;1041617;28;20033;-76
2021/05/12 00:06:49;;;;;;;13.65;5.35;;;28.20;28.70;;;;;;1045206;28;20021;-75
2021/05/12 00:07:21;;;;;;;18.15;5.80;;;28.20;28.40;;;;;;1045619;28;20025;-75
2021/05/12 00:07:53;;;;;;;13.98;5.60;;;28.30;28.30;;;;;;1049415;28;20100;-75
2021/05/12 00:08:24;;;;;;;17.17;5.60;;;28.30;28.20;;;;;;1049448;28;20035;-75
2021/05/12 00:08:56;;;;;;;19.08;5.90;;;28.30;28.10;;;;;;1049439;28;20036;-75
2021/05/12 00:09:27;;;;;;;16.75;5.65;;;28.20;28.00;;;;;;1049200;28;20078;-75
2021/05/12 00:09:58;;;;;;;15.93;5.40;;;28.20;27.80;;;;;;1049182;28;20479;-75
2021/05/12 00:10:30;;;;;;;16.90;5.20;;;28.10;27.20;;;;;;1044959;28;20021;-75
2021/05/12 00:11:01;;;;;;;19.70;5.65;;;28.20;27.50;;;;;;1045085;28;20017;-75
2021/05/12 00:11:33;;;;;;;18.73;5.57;;;28.10;27.60;;;;;;1044988;28;20371;-75
2021/05/12 00:12:05;;;;;;;22.45;5.65;;;28.20;27.90;;;;;;1041225;28;20026;-75
2021/05/12 00:12:37;;;;;;;15.00;5.70;;;28.20;28.00;;;;;;1044172;28;20024;-75
2021/05/12 00:13:09;;;;;;;18.58;5.60;;;28.20;27.80;;;;;;1044856;28;20025;-75
2021/05/12 00:13:40;;;;;;;14.15;5.53;;;28.20;27.90;;;;;;1045761;28;20031;-75
2021/05/12 00:14:12;;;;;;;16.92;5.78;;;28.10;27.80;;;;;;1048962;28;20055;-75
2021/05/12 00:14:43;;;;;;;15.80;5.60;;;28.10;28.00;;;;;;1049167;28;20024;-75
2021/05/12 00:15:19;;;;;;;16.38;5.50;;;28.10;28.10;;;;;;1044760;28;20456;-75
2021/05/12 00:15:51;;;;;;;16.33;5.50;;;28.10;28.50;;;;;;1045043;28;20017;-76
2021/05/12 00:16:22;;;;;;;17.58;5.60;;;28.00;28.30;;;;;;1039772;28;20022;-75
2021/05/12 00:16:54;;;;;;;20.48;5.60;;;28.00;28.00;;;;;;1039544;28;20428;-75
2021/05/12 00:17:27;;;;;;;14.98;5.43;;;28.00;28.00;;;;;;1040721;28;20347;-75
2021/05/12 00:17:59;;;;;;;16.73;5.68;;;28.00;28.30;;;;;;1041291;28;20021;-75
2021/05/12 00:18:37;;;;;;;18.05;6.00;;;28.00;28.60;;;;;;1045677;28;20025;-76
2021/05/12 00:19:08;;;;;;;15.43;5.45;;;28.00;28.50;;;;;;1049457;28;20013;-75
2021/05/12 00:19:41;;;;;;;16.83;5.47;;;28.00;28.10;;;;;;1049191;28;20017;-75
2021/05/12 00:20:16;;;;;;;16.33;5.90;;;28.00;28.10;;;;;;1044693;28;20356;-75
2021/05/12 00:20:48;;;;;;;15.00;5.60;;;28.00;28.30;;;;;;1045265;28;20096;-75
2021/05/12 00:22:29;;;;;;;15.77;5.72;;;28.00;28.70;;;;;;1032301;28;20030;-77
2021/05/12 00:23:10;;;;;;;18.85;6.00;;;27.90;28.50;;;;;;1036363;28;20412;-76
2021/05/12 00:23:49;;;;;;;13.90;5.25;;;27.90;28.60;;;;;;1047655;28;20364;-75
2021/05/12 00:24:20;;;;;;;17.75;5.72;;;27.90;28.60;;;;;;1044821;28;20056;-75
2021/05/12 00:24:51;;;;;;;15.93;5.68;;;27.80;28.80;;;;;;1045068;28;20025;-75
2021/05/12 00:25:23;;;;;;;15.90;5.50;;;27.80;28.70;;;;;;1045099;28;20360;-75
2021/05/12 00:25:55;;;;;;;14.82;5.80;;;27.80;29.00;;;;;;1044636;28;20359;-75
2021/05/12 00:26:32;;;;;;;17.58;5.88;;;27.80;30.00;;;;;;1040699;28;20029;-75
2021/05/12 00:27:03;;;;;;;20.52;6.07;;;27.90;29.80;;;;;;1040913;28;20022;-76
2021/05/12 00:27:35;;;;;;;16.80;5.47;;;27.90;29.80;;;;;;1040584;28;20022;-75
2021/05/12 00:28:06;;;;;;;15.50;5.88;;;27.90;29.50;;;;;;1041999;28;20080;-75
2021/05/12 00:28:38;;;;;;;18.25;5.93;;;27.90;28.90;;;;;;1039201;28;20116;-75
2021/05/12 00:29:14;;;;;;;14.95;5.30;;;28.00;28.50;;;;;;1038652;28;20013;-75
2021/05/12 00:29:46;;;;;;;15.75;5.72;;;28.00;28.70;;;;;;1042080;28;20025;-75
2021/05/12 00:30:20;;;;;;;14.82;5.30;;;28.10;28.30;;;;;;1048763;28;20446;-75
2021/05/12 00:30:51;;;;;;;17.05;5.65;;;28.10;28.40;;;;;;1051495;28;20111;-75
2021/05/12 00:31:22;;;;;;;15.10;5.60;;;28.10;28.30;;;;;;1044935;28;20017;-75
2021/05/12 00:31:54;;;;;;;15.43;5.60;;;28.10;28.50;;;;;;1045039;28;20021;-76
2021/05/12 00:32:26;;;;;;;16.08;5.78;;;28.20;28.60;;;;;;1045022;28;20096;-75
2021/05/12 00:32:57;;;;;;;14.25;5.18;;;28.20;28.30;;;;;;1044821;28;20021;-76
2021/05/12 00:33:28;;;;;;;15.90;5.38;;;28.10;27.90;;;;;;1044939;28;20509;-75
2021/05/12 00:34:00;;;;;;;15.07;5.47;;;28.20;27.90;;;;;;1044795;28;20017;-75
2021/05/12 00:34:32;;;;;;;16.30;5.05;;;28.20;27.50;;;;;;1045497;28;20017;-75
2021/05/12 00:35:04;;;;;;;12.45;5.13;;;28.20;27.30;;;;;;1049337;28;20027;-75
2021/05/12 00:35:36;;;;;;;13.88;5.05;;;28.20;27.30;;;;;;1049399;28;20020;-75
2021/05/12 00:36:07;;;;;;;13.15;4.93;;;28.20;27.60;;;;;;1044853;28;20059;-75
2021/05/12 00:36:39;;;;;;;13.23;5.00;;;28.20;27.40;;;;;;1040696;28;20014;-75
2021/05/12 00:37:10;;;;;;;13.25;5.20;;;28.20;27.20;;;;;;1040781;28;20017;-76
2021/05/12 00:37:43;;;;;;;12.90;5.10;;;28.20;27.10;;;;;;1040886;28;20006;-76
2021/05/12 00:38:14;;;;;;;14.15;5.15;;;28.10;27.00;;;;;;1041393;28;20121;-76
2021/05/12 00:38:45;;;;;;;13.98;5.10;;;28.20;27.00;;;;;;1044869;28;20020;-75
2021/05/12 00:39:17;;;;;;;16.00;5.30;;;28.20;26.90;;;;;;1045021;28;20427;-75
2021/05/12 00:39:49;;;;;;;14.63;5.00;;;28.10;27.00;;;;;;1044565;28;20002;-75
2021/05/12 00:40:21;;;;;;;13.40;5.00;;;28.10;27.20;;;;;;1044306;28;20088;-76
2021/05/12 00:40:52;;;;;;;13.00;4.90;;;28.00;27.30;;;;;;1048995;28;20008;-75
2021/05/12 00:41:24;;;;;;;13.32;5.10;;;28.00;27.30;;;;;;1049022;28;20043;-75
2021/05/12 00:41:56;;;;;;;14.00;4.88;;;28.00;27.30;;;;;;1049102;28;20032;-75
2021/05/12 00:42:29;;;;;;;14.68;5.60;;;28.00;27.40;;;;;;1049129;28;20360;-75
2021/05/12 00:43:00;;;;;;;13.15;5.07;;;27.90;27.50;;;;;;1049138;28;20016;-75
2021/05/12 00:43:32;;;;;;;14.82;4.88;;;28.00;27.70;;;;;;1044873;28;20024;-75
2021/05/12 00:44:15;;;;;;;15.55;5.30;;;28.00;27.60;;;;;;1040617;28;20364;-75
2021/05/12 00:44:46;;;;;;;14.13;5.00;;;27.90;27.40;;;;;;1040680;28;20352;-75
2021/05/12 00:45:20;;;;;;;14.27;5.07;;;27.90;27.30;;;;;;1042299;28;20452;-75
2021/05/12 00:45:52;;;;;;;14.10;4.90;;;27.90;27.50;;;;;;1046142;28;20017;-75
2021/05/12 00:46:23;;;;;;;15.05;5.07;;;27.90;27.40;;;;;;1049055;28;20074;-75
2021/05/12 00:46:55;;;;;;;13.75;5.20;;;27.90;27.50;;;;;;1049098;28;20022;-75
2021/05/12 00:47:28;;;;;;;18.05;5.68;;;27.90;28.20;;;;;;1045419;28;20016;-75
2021/05/12 00:48:00;;;;;;;14.27;5.35;;;27.90;27.60;;;;;;1049003;28;20024;-75
2021/05/12 00:48:31;;;;;;;14.27;5.30;;;27.80;27.70;;;;;;1043796;28;20055;-75
2021/05/12 00:49:03;;;;;;;16.95;5.50;;;27.80;27.70;;;;;;1041590;28;20415;-75
2021/05/12 00:49:35;;;;;;;13.30;5.10;;;27.80;27.80;;;;;;1044888;28;20355;-75
2021/05/12 00:50:08;;;;;;;15.52;5.35;;;27.90;28.00;;;;;;1045368;28;20017;-75
2021/05/12 00:50:40;;;;;;;14.52;4.88;;;27.80;27.60;;;;;;1045141;28;20102;-75
2021/05/12 00:51:12;;;;;;;14.27;5.00;;;27.80;27.60;;;;;;1041402;28;20056;-76
2021/05/12 00:51:44;;;;;;;14.10;5.22;;;27.80;27.50;;;;;;1037675;28;20018;-76
2021/05/12 00:52:15;;;;;;;16.02;5.25;;;27.80;27.50;;;;;;1044898;28;20021;-75
2021/05/12 00:52:47;;;;;;;14.02;5.10;;;27.90;27.70;;;;;;1044635;28;20332;-76
2021/05/12 00:53:18;;;;;;;13.27;5.30;;;27.80;27.40;;;;;;1045692;28;20431;-76
2021/05/12 00:53:49;;;;;;;14.02;4.70;;;27.80;27.40;;;;;;1048593;28;20020;-75
2021/05/12 00:54:21;;;;;;;15.25;4.70;;;27.80;27.40;;;;;;1049111;28;20023;-75
2021/05/12 00:54:53;;;;;;;14.73;5.00;;;27.80;27.40;;;;;;1049187;28;20178;-75
2021/05/12 00:55:25;;;;;;;14.30;4.88;;;27.80;27.40;;;;;;1049286;28;20013;-75
2021/05/12 00:55:56;;;;;;;16.02;5.03;;;27.80;27.50;;;;;;1049164;28;20036;-76
2021/05/12 00:56:28;;;;;;;14.95;5.53;;;27.90;27.40;;;;;;1049179;28;20005;-75
2021/05/12 00:57:00;;;;;;;13.20;4.93;;;27.90;27.40;;;;;;1049037;28;20013;-76
2021/05/12 00:57:33;;;;;;;18.02;5.35;;;27.80;27.40;;;;;;1048689;28;20040;-76
2021/05/12 00:58:04;;;;;;;14.93;5.20;;;27.80;27.40;;;;;;1049024;28;20012;-76
2021/05/12 00:58:36;;;;;;;14.85;5.40;;;27.80;27.40;;;;;;1049397;28;20070;-76
2021/05/12 00:59:09;;;;;;;13.57;5.07;;;27.80;27.60;;;;;;1044755;28;20021;-76
2021/05/12 00:59:42;;;;;;;13.35;4.93;;;27.80;27.70;;;;;;1044919;28;20013;-75
2021/05/12 01:00:16;;;;;;;17.27;5.47;;;27.80;27.60;;;;;;1043522;28;20013;-75
2021/05/12 01:00:48;;;;;;;15.70;5.25;;;27.80;27.80;;;;;;1040669;28;20052;-75
2021/05/12 01:01:19;;;;;;;12.95;5.07;;;27.80;27.90;;;;;;1040778;28;20010;-76
2021/05/12 01:01:51;;;;;;;13.48;4.82;;;27.80;27.50;;;;;;1041612;28;20330;-75
2021/05/12 01:02:23;;;;;;;15.73;5.07;;;27.80;27.40;;;;;;1041104;28;20014;-76
2021/05/12 01:02:55;;;;;;;17.73;5.30;;;27.80;27.50;;;;;;1044755;28;20067;-75
2021/05/12 01:03:26;;;;;;;14.60;5.25;;;27.80;27.30;;;;;;1044366;28;20009;-76
2021/05/12 01:03:58;;;;;;;18.90;5.47;;;27.80;27.40;;;;;;1036680;28;20026;-76
2021/05/12 01:04:29;;;;;;;15.15;4.88;;;27.80;27.50;;;;;;1043134;28;20009;-75
2021/05/12 01:05:01;;;;;;;14.10;5.28;;;27.80;27.50;;;;;;1042822;28;20036;-76
2021/05/12 01:05:35;;;;;;;12.90;4.82;;;27.80;27.60;;;;;;1044425;28;20013;-75
2021/05/12 01:06:25;;;;;;;15.25;5.30;;;27.80;27.80;;;;;;1045914;28;20085;-76
2021/05/12 01:06:56;;;;;;;12.32;4.90;;;27.80;27.20;;;;;;1048073;28;20063;-75
2021/05/12 01:07:31;;;;;;;13.35;5.32;;;27.90;27.40;;;;;;1049106;28;20383;-76
2021/05/12 01:08:05;;;;;;;14.85;4.95;;;27.90;27.50;;;;;;1048904;28;20457;-74
2021/05/12 01:08:37;;;;;;;14.05;5.20;;;27.90;27.60;;;;;;1047368;28;20021;-74
2021/05/12 01:09:09;;;;;;;14.50;5.38;;;27.90;27.80;;;;;;1044868;28;20044;-74
2021/05/12 01:09:41;;;;;;;13.70;5.15;;;27.80;27.90;;;;;;1044848;28;20016;-75
2021/05/12 01:10:21;;;;;;;15.10;5.53;;;27.90;28.00;;;;;;1048336;28;20380;-75
2021/05/12 01:10:53;;;;;;;14.48;5.22;;;27.80;28.10;;;;;;1047610;28;20067;-75
2021/05/12 01:11:25;;;;;;;12.48;5.10;;;27.80;28.00;;;;;;1044714;28;20036;-75
2021/05/12 01:11:56;;;;;;;16.67;5.45;;;27.80;28.10;;;;;;1044956;28;20104;-75
2021/05/12 01:12:31;;;;;;;18.88;5.28;;;27.80;27.70;;;;;;1044793;28;20444;-75
2021/05/12 01:13:03;;;;;;;15.15;5.13;;;27.80;27.80;;;;;;1044609;28;20017;-75
2021/05/12 01:13:34;;;;;;;16.92;5.55;;;27.80;28.00;;;;;;1044861;28;20439;-76
2021/05/12 01:14:05;;;;;;;16.77;5.70;;;27.80;28.00;;;;;;1040374;28;20017;-75
2021/05/12 01:14:37;;;;;;;18.55;5.47;;;27.80;27.50;;;;;;1041197;28;20025;-75
2021/05/12 01:15:09;;;;;;;13.55;4.97;;;27.70;27.60;;;;;;1044847;28;20067;-75
2021/05/12 01:15:45;;;;;;;17.15;5.88;;;27.70;27.90;;;;;;1045385;28;20104;-75
2021/05/12 01:16:18;;;;;;;14.85;5.22;;;27.70;28.00;;;;;;1047647;28;20013;-75
2021/05/12 01:16:49;;;;;;;13.82;4.88;;;27.70;28.00;;;;;;1048910;28;20019;-75
2021/05/12 01:17:21;;;;;;;14.30;5.53;;;27.70;28.00;;;;;;1049059;28;20012;-75
2021/05/12 01:17:52;;;;;;;14.35;5.63;;;27.70;28.10;;;;;;1049696;28;20020;-75
2021/05/12 01:18:24;;;;;;;16.40;5.50;;;27.70;27.90;;;;;;1051208;28;20399;-75
2021/05/12 01:18:55;;;;;;;15.77;5.55;;;27.70;28.10;;;;;;1048822;28;20087;-75
2021/05/12 01:19:27;;;;;;;17.90;5.60;;;27.60;28.00;;;;;;1048903;28;20025;-76
2021/05/12 01:19:59;;;;;;;14.93;5.75;;;27.50;28.00;;;;;;1044388;28;20017;-75
2021/05/12 01:20:30;;;;;;;16.35;5.35;;;27.50;28.60;;;;;;1044247;28;20024;-75
2021/05/12 01:21:05;;;;;;;16.42;5.50;;;27.50;28.10;;;;;;1040691;28;20376;-75
2021/05/12 01:21:36;;;;;;;14.02;5.53;;;27.50;28.20;;;;;;1039581;28;20029;-76
2021/05/12 01:22:09;;;;;;;15.35;5.40;;;27.50;28.40;;;;;;1042535;28;20403;-74
2021/05/12 01:22:41;;;;;;;15.30;5.57;;;27.50;28.40;;;;;;1043962;28;20017;-74
2021/05/12 01:23:13;;;;;;;16.40;5.60;;;27.50;28.60;;;;;;1043379;28;20541;-76
2021/05/12 01:23:48;;;;;;;17.15;5.38;;;27.40;28.40;;;;;;1040234;28;20025;-74
2021/05/12 01:24:20;;;;;;;14.65;5.45;;;27.40;28.40;;;;;;1039728;28;20021;-74
2021/05/12 01:24:51;;;;;;;18.08;5.85;;;27.40;28.70;;;;;;1042276;28;20024;-74
2021/05/12 01:25:23;;;;;;;15.23;5.55;;;27.40;28.70;;;;;;1045657;28;20352;-74
2021/05/12 01:25:56;;;;;;;14.15;4.97;;;27.30;28.60;;;;;;1040534;28;20460;-74
2021/05/12 01:26:27;;;;;;;15.95;5.68;;;27.30;28.70;;;;;;1044450;28;20009;-72
2021/05/12 01:26:59;;;;;;;15.38;5.50;;;27.30;28.70;;;;;;1044628;28;20083;-75
2021/05/12 01:27:30;;;;;;;12.63;5.32;;;27.30;28.80;;;;;;1045518;28;20005;-74
2021/05/12 01:28:02;;;;;;;15.52;5.43;;;27.30;28.90;;;;;;1049035;28;20036;-72
2021/05/12 01:28:38;;;;;;;14.40;5.35;;;27.30;29.00;;;;;;1048914;28;20071;-72
2021/05/12 01:29:10;;;;;;;15.07;5.50;;;27.30;29.00;;;;;;1049064;28;20016;-73
2021/05/12 01:29:41;;;;;;;14.98;5.63;;;27.20;29.20;;;;;;1048826;28;20028;-73
2021/05/12 01:30:14;;;;;;;16.08;5.35;;;27.30;29.30;;;;;;1049073;28;20096;-73
2021/05/12 01:31:05;;;;;;;17.33;6.20;;;27.20;29.10;;;;;;1048691;28;20027;-73
2021/05/12 01:31:40;;;;;;;17.17;6.30;;;27.10;29.10;;;;;;1048820;28;20008;-75
2021/05/12 01:32:12;;;;;;;18.42;5.90;;;27.10;29.00;;;;;;1044753;28;20059;-74
2021/05/12 01:32:44;;;;;;;17.45;5.60;;;27.10;29.20;;;;;;1044782;28;20032;-75
2021/05/12 01:33:15;;;;;;;17.38;5.90;;;27.10;29.30;;;;;;1044787;28;20017;-75
2021/05/12 01:33:48;;;;;;;15.05;5.78;;;27.10;29.40;;;;;;1045181;28;20035;-74
2021/05/12 01:34:21;;;;;;;13.90;5.55;;;27.00;29.40;;;;;;1049128;28;20462;-74
2021/05/12 01:34:52;;;;;;;19.65;6.15;;;27.00;29.50;;;;;;1044643;28;20017;-74
2021/05/12 01:35:24;;;;;;;16.52;5.80;;;27.00;29.40;;;;;;1044782;28;20101;-74
2021/05/12 01:35:56;;;;;;;19.50;6.28;;;27.00;29.30;;;;;;1044710;28;20041;-74
2021/05/12 01:36:30;;;;;;;17.77;6.07;;;26.90;29.40;;;;;;1040964;28;20022;-73
2021/05/12 01:37:02;;;;;;;16.13;5.82;;;26.90;29.30;;;;;;1044717;28;20024;-74
2021/05/12 01:37:35;;;;;;;16.27;6.07;;;26.90;29.30;;;;;;1040536;28;20376;-74
2021/05/12 01:38:06;;;;;;;15.57;5.60;;;26.90;29.30;;;;;;1041591;28;20432;-74
2021/05/12 01:38:40;;;;;;;16.30;5.68;;;26.90;29.30;;;;;;1040173;28;20514;-73
2021/05/12 01:39:12;;;;;;;14.10;5.60;;;26.80;29.30;;;;;;1041620;28;20018;-74
2021/05/12 01:39:44;;;;;;;18.00;5.85;;;26.90;29.40;;;;;;1040499;28;20025;-73
2021/05/12 01:40:15;;;;;;;15.98;5.63;;;26.80;29.40;;;;;;1041474;28;20425;-74
2021/05/12 01:40:48;;;;;;;17.40;6.10;;;26.80;29.40;;;;;;1044744;28;20578;-74
2021/05/12 01:41:23;;;;;;;14.40;5.53;;;26.80;29.40;;;;;;1040498;28;20021;-74
2021/05/12 01:41:54;;;;;;;15.73;5.55;;;26.80;29.60;;;;;;1040525;28;20120;-74
2021/05/12 01:42:26;;;;;;;18.42;5.78;;;26.70;29.50;;;;;;1040656;28;20014;-74
2021/05/12 01:42:57;;;;;;;17.20;5.93;;;26.70;29.50;;;;;;1043786;28;20021;-74
2021/05/12 01:43:30;;;;;;;18.00;5.93;;;26.60;29.30;;;;;;1047248;28;20035;-75
2021/05/12 01:44:09;;;;;;;16.73;5.60;;;26.60;29.10;;;;;;1048057;28;20471;-74
2021/05/12 01:44:40;;;;;;;16.52;5.75;;;26.50;29.10;;;;;;1046502;28;20024;-75
2021/05/12 01:45:13;;;;;;;17.95;5.53;;;26.50;29.20;;;;;;1048742;28;20035;-75
2021/05/12 01:45:44;;;;;;;16.35;5.75;;;26.40;29.30;;;;;;1048519;28;20107;-75
2021/05/12 01:46:16;;;;;;;13.98;5.40;;;26.40;29.50;;;;;;1048195;28;20529;-75
2021/05/12 01:46:47;;;;;;;17.85;5.50;;;26.40;29.50;;;;;;1044083;28;20493;-75
2021/05/12 01:47:19;;;;;;;19.23;5.68;;;26.30;29.60;;;;;;1043537;28;20025;-74
2021/05/12 01:47:50;;;;;;;16.25;5.75;;;26.30;29.70;;;;;;1040317;28;20021;-75
2021/05/12 01:48:22;;;;;;;15.10;5.22;;;26.30;29.80;;;;;;1036866;28;20018;-75
2021/05/12 01:48:53;;;;;;;15.35;5.32;;;26.30;29.40;;;;;;1040611;28;20452;-75
2021/05/12 01:49:29;;;;;;;14.02;5.68;;;26.30;29.20;;;;;;1040245;28;20021;-75
2021/05/12 01:50:10;;;;;;;16.13;5.20;;;26.30;29.20;;;;;;1047962;28;20044;-75
2021/05/12 01:50:42;;;;;;;14.77;5.45;;;26.30;29.30;;;;;;1053078;28;20020;-75
2021/05/12 01:51:15;;;;;;;14.50;5.10;;;26.30;29.10;;;;;;1044459;28;20016;-75
2021/05/12 01:51:47;;;;;;;15.70;5.47;;;26.30;29.10;;;;;;1046947;28;20028;-75
2021/05/12 01:52:18;;;;;;;17.55;5.60;;;26.20;29.20;;;;;;1048974;28;20021;-76
2021/05/12 01:52:50;;;;;;;19.25;5.50;;;26.20;29.30;;;;;;1048682;28;20356;-75
2021/05/12 01:53:22;;;;;;;14.52;5.43;;;26.20;29.40;;;;;;1048855;28;20321;-75
2021/05/12 01:53:53;;;;;;;17.88;5.35;;;26.20;29.60;;;;;;1045879;28;20328;-75
2021/05/12 01:54:25;;;;;;;15.02;5.47;;;26.20;29.50;;;;;;1044721;28;20013;-75
2021/05/12 01:54:56;;;;;;;15.20;5.18;;;26.20;29.40;;;;;;1045191;28;20071;-75
2021/05/12 01:55:28;;;;;;;14.68;5.15;;;26.20;29.50;;;;;;1044363;28;20017;-75
2021/05/12 01:55:59;;;;;;;14.88;5.60;;;26.20;29.60;;;;;;1039842;28;20010;-74
2021/05/12 01:56:33;;;;;;;15.55;5.60;;;26.10;29.50;;;;;;1040504;28;20013;-75
2021/05/12 01:57:04;;;;;;;14.45;5.15;;;26.10;29.30;;;;;;1041414;28;20582;-75
2021/05/12 01:57:39;;;;;;;14.30;5.53;;;26.00;29.50;;;;;;1045563;28;20472;-74
2021/05/12 01:58:10;;;;;;;15.10;5.25;;;26.00;29.40;;;;;;1044539;28;20482;-74
2021/05/12 01:58:42;;;;;;;14.57;5.13;;;26.00;29.50;;;;;;1044320;28;20021;-75
2021/05/12 01:59:13;;;;;;;15.25;5.68;;;26.00;29.60;;;;;;1047442;28;20024;-75
2021/05/12 01:59:44;;;;;;;16.50;5.18;;;26.00;29.30;;;;;;1048670;28;20459;-75
2021/05/12 02:00:20;;;;;;;16.25;5.10;;;25.90;29.30;;;;;;1048775;28;20037;-75
2021/05/12 02:00:54;;;;;;;16.58;5.70;;;25.80;29.40;;;;;;1045701;28;20470;-74
2021/05/12 02:01:25;;;;;;;14.15;5.28;;;25.90;29.50;;;;;;1044197;28;20034;-74
2021/05/12 02:01:57;;;;;;;20.15;5.93;;;26.00;29.50;;;;;;1040368;28;20013;-74
2021/05/12 02:02:28;;;;;;;17.02;6.03;;;25.90;29.60;;;;;;1044516;28;20096;-74
2021/05/12 02:03:00;;;;;;;18.17;5.55;;;25.90;29.80;;;;;;1044647;28;20096;-74
2021/05/12 02:03:32;;;;;;;15.70;5.38;;;25.80;29.70;;;;;;1044225;28;20436;-74
2021/05/12 02:04:06;;;;;;;15.05;5.28;;;25.80;29.80;;;;;;1043588;28;20024;-74
2021/05/12 02:04:41;;;;;;;16.42;5.60;;;25.70;29.80;;;;;;1048849;28;20012;-74
2021/05/12 02:05:12;;;;;;;16.17;5.50;;;25.70;29.90;;;;;;1048593;28;20158;-75
2021/05/12 02:05:45;;;;;;;13.00;5.05;;;25.80;29.40;;;;;;1048636;28;20052;-75
2021/05/12 02:06:16;;;;;;;12.20;5.28;;;25.70;29.60;;;;;;1044537;28;20009;-74
2021/05/12 02:06:48;;;;;;;17.85;5.65;;;25.60;29.80;;;;;;1044675;28;20013;-74
2021/05/12 02:07:19;;;;;;;19.73;5.03;;;25.60;29.70;;;;;;1044127;28;20017;-74
2021/05/12 02:07:57;;;;;;;13.15;5.03;;;25.60;29.40;;;;;;1044246;28;20021;-74
2021/05/12 02:08:29;;;;;;;15.63;5.15;;;25.50;29.60;;;;;;1044615;28;20045;-75
2021/05/12 02:09:03;;;;;;;17.92;5.43;;;25.50;29.50;;;;;;1044270;28;20041;-74
2021/05/12 02:09:44;;;;;;;15.30;5.32;;;25.40;29.40;;;;;;1044446;28;20009;-74
2021/05/12 02:10:16;;;;;;;11.73;4.80;;;25.40;29.40;;;;;;1044643;28;20047;-75
2021/05/12 02:10:49;;;;;;;15.75;5.40;;;25.40;29.50;;;;;;1044616;28;20080;-75
2021/05/12 02:11:21;;;;;;;13.88;5.22;;;25.40;29.50;;;;;;1047823;28;20008;-74
2021/05/12 02:11:52;;;;;;;12.80;4.88;;;25.40;29.60;;;;;;1044004;28;20009;-74
2021/05/12 02:12:23;;;;;;;14.40;5.20;;;25.40;29.80;;;;;;1044382;28;20467;-74
2021/05/12 02:12:56;;;;;;;16.45;5.35;;;25.30;29.70;;;;;;1043872;28;20156;-74
2021/05/12 02:13:30;;;;;;;14.80;5.22;;;25.30;30.40;;;;;;1039957;28;20013;-73
2021/05/12 02:14:02;;;;;;;18.63;5.28;;;25.20;30.00;;;;;;1037033;28;20014;-74
2021/05/12 02:14:35;;;;;;;15.25;5.30;;;25.20;30.10;;;;;;1040508;28;20079;-74
2021/05/12 02:15:07;;;;;;;13.43;5.10;;;25.20;30.40;;;;;;1041515;28;20329;-74
2021/05/12 02:15:42;;;;;;;12.93;5.10;;;25.10;30.40;;;;;;1044440;28;20044;-74
2021/05/12 02:16:14;;;;;;;15.00;4.97;;;25.20;30.50;;;;;;1044507;28;20013;-74
2021/05/12 02:16:45;;;;;;;17.63;5.72;;;25.20;30.30;;;;;;1043302;28;20035;-74
2021/05/12 02:17:16;;;;;;;15.48;5.25;;;25.20;30.30;;;;;;1040419;28;20456;-74
2021/05/12 02:17:48;;;;;;;15.10;5.13;;;25.20;30.60;;;;;;1040516;28;20009;-74
2021/05/12 02:18:20;;;;;;;16.27;5.18;;;25.10;30.40;;;;;;1044464;28;20116;-74
2021/05/12 02:18:52;;;;;;;18.02;5.22;;;25.10;30.50;;;;;;1042974;28;20466;-74
2021/05/12 02:19:24;;;;;;;14.68;5.22;;;25.10;30.40;;;;;;1044114;28;20005;-74
2021/05/12 02:19:55;;;;;;;15.18;5.40;;;25.10;30.40;;;;;;1042248;28;20005;-75
2021/05/12 02:20:29;;;;;;;14.30;5.60;;;25.10;30.40;;;;;;1044440;28;20036;-75
2021/05/12 02:21:01;;;;;;;15.90;5.50;;;25.00;30.40;;;;;;1040783;28;20049;-74
2021/05/12 02:21:33;;;;;;;12.15;5.00;;;25.00;30.50;;;;;;1040297;28;20013;-74
2021/05/12 02:22:04;;;;;;;17.75;5.43;;;25.00;30.70;;;;;;1036321;28;20022;-74
2021/05/12 02:22:36;;;;;;;16.02;5.45;;;25.00;30.80;;;;;;1037060;28;20006;-73
2021/05/12 02:23:12;;;;;;;13.70;5.32;;;24.90;30.90;;;;;;1040846;28;20006;-73
2021/05/12 02:23:44;;;;;;;15.48;5.18;;;24.90;30.90;;;;;;1041376;28;20032;-74
2021/05/12 02:24:15;;;;;;;13.82;4.90;;;24.80;31.00;;;;;;1039488;28;20026;-73
2021/05/12 02:24:47;;;;;;;15.82;5.00;;;24.80;31.00;;;;;;1040264;28;20028;-74
2021/05/12 02:25:19;;;;;;;14.45;5.07;;;24.80;31.10;;;;;;1036924;28;20468;-73
2021/05/12 02:25:50;;;;;;;15.85;5.13;;;24.70;31.20;;;;;;1040764;28;20029;-74
2021/05/12 02:26:21;;;;;;;12.55;5.22;;;24.70;31.30;;;;;;1044498;28;20070;-74
2021/05/12 02:26:53;;;;;;;15.30;5.03;;;24.70;31.20;;;;;;1044983;28;20337;-74
2021/05/12 02:27:24;;;;;;;17.00;5.90;;;24.70;31.00;;;;;;1044280;28;20013;-74
2021/05/12 02:27:56;;;;;;;14.02;5.03;;;24.60;31.00;;;;;;1044368;28;20013;-74
2021/05/12 02:28:28;;;;;;;16.88;5.57;;;24.60;31.10;;;;;;1043999;28;20009;-74
2021/05/12 02:28:59;;;;;;;14.82;5.45;;;24.60;31.10;;;;;;1041076;28;20344;-74
2021/05/12 02:29:31;;;;;;;14.88;5.30;;;24.60;31.20;;;;;;1044347;28;20020;-74
2021/05/12 02:30:05;;;;;;;12.40;5.13;;;24.60;31.30;;;;;;1044691;28;20052;-74
2021/05/12 02:30:37;;;;;;;15.60;5.32;;;24.60;31.70;;;;;;1046368;28;20103;-73
2021/05/12 02:31:08;;;;;;;11.85;4.60;;;24.60;31.80;;;;;;1048486;28;20028;-74
2021/05/12 02:31:40;;;;;;;13.32;5.22;;;24.60;32.70;;;;;;1048635;28;20367;-74
2021/05/12 02:32:11;;;;;;;14.18;5.05;;;24.60;31.60;;;;;;1048500;28;20013;-74
2021/05/12 02:32:43;;;;;;;17.60;5.28;;;24.60;32.10;;;;;;1048740;28;20047;-74
2021/05/12 02:33:16;;;;;;;15.52;5.60;;;24.60;32.00;;;;;;1048351;28;20441;-74
2021/05/12 02:33:47;;;;;;;13.32;5.15;;;24.60;31.70;;;;;;1048115;28;20008;-74
2021/05/12 02:34:19;;;;;;;14.43;5.00;;;24.60;31.60;;;;;;1043851;28;20025;-74
2021/05/12 02:34:50;;;;;;;15.63;5.40;;;24.60;31.60;;;;;;1044535;28;20025;-74
2021/05/12 02:35:22;;;;;;;14.70;5.10;;;24.60;31.40;;;;;;1043276;28;20024;-74
2021/05/12 02:35:53;;;;;;;13.93;5.03;;;24.60;31.30;;;;;;1040862;28;20424;-74
2021/05/12 02:36:25;;;;;;;14.55;4.65;;;24.60;31.50;;;;;;1043675;28;20013;-74
2021/05/12 02:36:56;;;;;;;12.18;4.50;;;24.60;31.50;;;;;;1039896;28;20045;-76
2021/05/12 02:37:28;;;;;;;11.70;5.00;;;24.60;31.70;;;;;;1044964;28;20321;-74
2021/05/12 02:38:00;;;;;;;18.08;5.20;;;24.50;31.10;;;;;;1047466;28;20143;-75
2021/05/12 02:38:31;;;;;;;22.90;5.50;;;24.60;31.30;;;;;;1044104;28;20024;-74
2021/05/12 02:39:03;;;;;;;16.23;5.30;;;24.50;32.00;;;;;;1043398;28;20029;-74
2021/05/12 02:39:34;;;;;;;16.77;5.80;;;24.60;32.40;;;;;;1043754;28;20062;-74
2021/05/12 02:40:08;;;;;;;29.45;8.55;;;24.60;33.20;;;;;;1048437;28;20090;-74
2021/05/12 02:40:40;;;;;;;30.75;9.30;;;24.60;35.40;;;;;;1040785;28;20020;-73
2021/05/12 02:41:12;;;;;;;26.17;8.85;;;24.60;36.80;;;;;;1044452;28;20017;-73
2021/05/12 02:41:43;;;;;;;28.38;9.02;;;24.60;37.50;;;;;;1043982;28;20053;-74
2021/05/12 02:42:16;;;;;;;30.25;9.32;;;24.60;37.80;;;;;;1045709;28;20940;-74
2021/05/12 02:42:49;;;;;;;30.95;8.98;;;24.60;38.10;;;;;;1045268;28;20025;-74
2021/05/12 02:43:20;;;;;;;34.92;9.73;;;24.50;38.10;;;;;;1044395;28;20063;-74
2021/05/12 02:43:51;;;;;;;32.63;10.50;;;24.60;38.20;;;;;;1046603;28;20086;-73
2021/05/12 02:44:23;;;;;;;26.60;9.68;;;24.60;38.50;;;;;;1048000;28;20020;-72
2021/05/12 02:44:54;;;;;;;31.73;9.48;;;24.50;38.80;;;;;;1048656;28;20012;-73
2021/05/12 02:45:27;;;;;;;29.83;9.40;;;24.50;38.80;;;;;;1044728;28;20515;-74
2021/05/12 02:45:58;;;;;;;28.05;9.57;;;24.50;38.90;;;;;;1040694;28;20049;-74
2021/05/12 02:46:29;;;;;;;30.17;8.98;;;24.40;38.90;;;;;;1044379;28;20028;-74
2021/05/12 02:47:01;;;;;;;27.85;8.60;;;24.40;39.00;;;;;;1043365;28;20059;-74
2021/05/12 02:47:33;;;;;;;32.05;9.80;;;24.40;38.90;;;;;;1047109;28;20017;-74